Impacts METAR Board INFO
IDs:

KCLT - Charlotte/Douglas In, NC, US

Updated at: 0221 UTC 11 Dec 2017
Potential Impact None Slight Moderate High
Time10/14Z 10/15Z 10/16Z 10/17Z 10/18Z 10/19Z 10/20Z 10/21Z 10/22Z 10/23Z 11/00Z 11/01Z 11/02Z
VIS10 10 10 10 10 10 10 10 10 10 10 10 10
CIG-- -- -- -- -- -- -- -- -- -- -- -- --
CoverCLRCLRCLRCLRCLRCLRCLRFEWFEWFEWCLRCLRCLR
FltCatVFRVFRVFRVFRVFRVFRVFRVFRVFRVFRVFRVFRVFR
WX--------------------------
WDir25028002700280260230230240200170170
WSpd5 6 3 5 0 6 7 6 5 5 5 4 7
WGst-- -- -- -- -- -- -- -- -- -- -- -- --
Raw hourly METARs
KCLT 101352Z 25005KT 10SM CLR 01/M04 A3021 RMK AO2 SLP236 T00061044 $
KCLT 101452Z 28006KT 10SM CLR 02/M04 A3023 RMK AO2 SLP239 T00221044 51021 $
KCLT 101552Z VRB03KT 10SM CLR 04/M04 A3023 RMK AO2 SLP239 T00391044 $
KCLT 101652Z 27005KT 10SM CLR 04/M05 A3021 RMK AO2 SLP234 T00441050 $
KCLT 101752Z 00000KT 10SM CLR 06/M05 A3018 RMK AO2 SLP224 T00561050 10061 21028 58014 $
KCLT 101852Z 28006KT 10SM CLR 07/M07 A3015 RMK AO2 SLP213 T00671067 $
KCLT 101952Z 26007KT 230V290 10SM CLR 08/M07 A3014 RMK AO2 SLP208 T00781067 $
KCLT 102052Z 23006KT 10SM FEW250 08/M06 A3014 RMK AO2 SLP209 T00781056 55014 $
KCLT 102152Z 23005KT 10SM FEW250 06/M06 A3014 RMK AO2 SLP210 T00611056 $
KCLT 102252Z 24005KT 10SM FEW250 04/M05 A3015 RMK AO2 SLP214 T00391050 $
KCLT 102352Z 20005KT 10SM CLR 03/M04 A3015 RMK AO2 SLP215 T00281044 10083 20028 53003 $
KCLT 110052Z 17004KT 10SM CLR 02/M04 A3014 RMK AO2 SLP212 T00221044 $
KCLT 110152Z 17007KT 10SM CLR 02/M04 A3014 RMK AO2 SLP211 T00171039 $